Aviation Digital Data Service (ADDS)

Output produced by METARs form (2150 UTC 20 October 2018)
found at http://www.aviationweather.gov/metar/data/
 
TAF SUCA 201745Z 2018/2118 07010KT 9999 SCT020 BKN070 TX22/2118Z TN13/2110Z 
     TEMPO 2021/2104 10010G20KT 5000 RA BKN015 OVC070
       
TAF SUDU 201745Z 2018/2118 10010KT 9999 SCT020 BKN070 TX23/2118Z TN11/2110Z 
     PROB30 
     TEMPO 2018/2100 7000 RA BKN017 OVC070
       
TAF SUMU 201745Z 2018/2118 13012KT 9999 SCT030 BKN200 TX23/2118Z TN12/2110Z 
     PROB30 
     TEMPO 2100/2106 05012KT 6000 RA BKN020 OVC070
       
TAF SUAA 201745Z 2018/2118 10010KT 9999 SCT030 BKN200 TX24/2118Z TN13/2110Z 
     PROB30 
     TEMPO 2101/2106 05012KT 7000 RA BKN020 OVC070
       
TAF SULS 201745Z 2018/2118 15015KT 9999 SCT023 BKN200 TX22/2118Z TN12/2110Z 
     PROB30 
     TEMPO 2101/2107 05012KT 6000 RA BKN020 OVC070
       
TAF SURV 201745Z 2018/2118 09010G20KT CAVOK TX25/2118Z TN13/2110Z 
     BECMG 2022/2100 12012KT 9999 SCT020 BKN070 
     PROB30 
     TEMPO 2100/2106 7000 RA BKN015 OVC070
       
TAF SUSO 201745Z 2018/2118 12015KT CAVOK TX27/2118Z TN15/2110Z 
     BECMG 2106/2108 04010KT